Time;durP1;ratioP1;P1;durP2;ratioP2;P2;SDS_P1;SDS_P2;PMS_P1;PMS_P2;Temp;Humidity;BMP_temperature;BMP_pressure;BME280_temperature;BME280_humidity;BME280_pressure;Samples;Min_cycle;Max_cycle;Signal;HPM_P1;HPM_P2
2022/12/16 00:00:28;;;;;;;42.58;17.00;;;-7.00;99.90;;;;;;4165689;28;20212;-75
2022/12/16 00:02:32;;;;;;;44.45;18.35;;;-7.00;99.90;;;;;;4156644;28;20205;-75
2022/12/16 00:04:34;;;;;;;40.28;16.42;;;-7.00;99.90;;;;;;4158306;28;20204;-75
2022/12/16 00:06:36;;;;;;;39.40;16.48;;;-7.00;99.90;;;;;;4177102;28;20223;-75
2022/12/16 00:08:39;;;;;;;36.47;16.17;;;-7.00;99.90;;;;;;4159798;28;20209;-75
2022/12/16 00:10:52;;;;;;;39.22;16.85;;;-6.30;99.90;;;;;;4174561;28;20211;-74
2022/12/16 00:12:54;;;;;;;38.88;15.18;;;-7.00;99.90;;;;;;4158734;28;20801;-75
2022/12/16 00:14:56;;;;;;;44.67;16.55;;;-7.00;99.90;;;;;;4159498;28;20207;-75
2022/12/16 00:16:58;;;;;;;42.33;16.98;;;-7.00;99.90;;;;;;4159642;28;20856;-75
2022/12/16 00:19:02;;;;;;;40.58;17.15;;;-7.00;99.90;;;;;;4157415;28;20711;-75
2022/12/16 00:21:04;;;;;;;44.40;17.10;;;-7.00;99.90;;;;;;4171975;28;20215;-75
2022/12/16 00:23:06;;;;;;;42.95;17.48;;;-7.00;99.90;;;;;;4174095;28;20662;-75
2022/12/16 00:25:09;;;;;;;39.85;16.17;;;-6.90;99.90;;;;;;4174464;28;20483;-74
2022/12/16 00:27:11;;;;;;;42.55;17.42;;;-6.90;99.90;;;;;;4172624;28;20223;-75
2022/12/16 00:29:13;;;;;;;41.30;17.92;;;-6.90;99.90;;;;;;4177106;28;20844;-74
2022/12/16 00:31:15;;;;;;;40.65;16.13;;;-6.90;99.90;;;;;;4173931;28;20214;-74
2022/12/16 00:33:17;;;;;;;40.58;16.48;;;-7.00;99.90;;;;;;4173226;28;20709;-75
2022/12/16 00:35:21;;;;;;;40.00;15.65;;;-6.90;99.90;;;;;;4175869;28;20859;-74
2022/12/16 00:37:23;;;;;;;39.60;15.95;;;-6.90;99.90;;;;;;4173521;28;20634;-74
2022/12/16 00:39:24;;;;;;;40.63;15.90;;;-6.90;99.90;;;;;;4155658;28;20219;-75
2022/12/16 00:41:28;;;;;;;43.75;17.80;;;-7.00;99.90;;;;;;4169797;28;20322;-74
2022/12/16 00:43:30;;;;;;;39.75;15.75;;;-7.00;99.90;;;;;;4160222;28;20259;-74
2022/12/16 00:45:32;;;;;;;39.30;15.80;;;-6.90;99.90;;;;;;4173553;28;20735;-74
2022/12/16 00:47:34;;;;;;;40.03;17.23;;;-7.00;99.90;;;;;;4155479;28;20713;-74
2022/12/16 00:49:36;;;;;;;44.38;16.25;;;-7.00;99.90;;;;;;4160733;28;20285;-74
2022/12/16 00:51:40;;;;;;;39.42;16.50;;;-7.00;99.90;;;;;;4157960;28;20219;-74
2022/12/16 00:53:42;;;;;;;42.83;16.42;;;-7.00;99.90;;;;;;4172978;28;20227;-74
2022/12/16 00:55:45;;;;;;;39.95;15.48;;;-6.10;99.90;;;;;;4172465;28;20227;-74
2022/12/16 00:57:47;;;;;;;41.15;16.38;;;-7.00;99.90;;;;;;4160903;28;20665;-75
2022/12/16 00:59:49;;;;;;;40.80;16.38;;;-7.00;99.90;;;;;;4174983;28;20223;-74
2022/12/16 01:01:51;;;;;;;45.58;16.90;;;-7.00;99.90;;;;;;4169572;28;20205;-74
2022/12/16 01:03:56;;;;;;;43.20;17.23;;;-7.00;99.90;;;;;;4178742;28;20199;-74
2022/12/16 01:05:58;;;;;;;40.92;15.80;;;-7.00;99.90;;;;;;4172636;28;20611;-74
2022/12/16 01:08:01;;;;;;;40.20;15.88;;;-7.00;99.90;;;;;;4173351;28;20225;-75
2022/12/16 01:10:05;;;;;;;42.55;17.05;;;-7.00;99.90;;;;;;4156450;28;20211;-75
2022/12/16 01:12:07;;;;;;;41.63;16.67;;;-7.00;99.90;;;;;;4173101;28;20202;-75
2022/12/16 01:14:09;;;;;;;47.15;16.83;;;-7.00;99.90;;;;;;4156646;28;20259;-74
2022/12/16 01:16:11;;;;;;;41.95;17.20;;;-7.00;99.90;;;;;;4156627;28;20231;-75
2022/12/16 01:18:13;;;;;;;41.53;15.93;;;-7.00;99.90;;;;;;4170685;28;20194;-75
2022/12/16 01:20:15;;;;;;;39.95;16.20;;;-7.00;99.90;;;;;;4154712;28;20212;-75
2022/12/16 01:22:17;;;;;;;36.28;14.93;;;-6.30;99.90;;;;;;4153644;28;20249;-75
2022/12/16 01:24:20;;;;;;;40.08;15.32;;;-7.00;99.90;;;;;;4157994;28;20207;-75
2022/12/16 01:26:23;;;;;;;45.33;17.63;;;-7.00;99.90;;;;;;4169711;28;20232;-75
2022/12/16 01:28:25;;;;;;;40.42;16.10;;;-7.00;99.90;;;;;;4172611;28;20262;-75
2022/12/16 01:30:27;;;;;;;42.72;16.98;;;-7.00;99.90;;;;;;4170946;28;20206;-74
2022/12/16 01:32:31;;;;;;;41.15;15.82;;;-7.00;99.90;;;;;;4170022;28;20211;-75
2022/12/16 01:34:33;;;;;;;38.10;15.23;;;-7.10;99.90;;;;;;4171024;28;20206;-74
2022/12/16 01:36:35;;;;;;;38.10;15.20;;;-7.10;99.90;;;;;;4169897;28;20277;-75
2022/12/16 01:38:37;;;;;;;37.22;14.52;;;-7.20;99.90;;;;;;4172594;28;20228;-74
2022/12/16 01:40:41;;;;;;;43.45;15.30;;;-7.00;99.90;;;;;;4173623;28;20206;-74
2022/12/16 01:42:44;;;;;;;40.15;15.60;;;-7.20;99.90;;;;;;4172838;28;20212;-75
2022/12/16 01:44:48;;;;;;;39.15;16.27;;;-7.20;99.90;;;;;;4174940;28;20203;-75
2022/12/16 01:46:53;;;;;;;40.50;16.10;;;-7.20;99.90;;;;;;4175936;28;20323;-74
2022/12/16 01:49:00;;;;;;;39.30;15.80;;;-7.20;99.90;;;;;;4173521;28;20206;-75
2022/12/16 01:51:05;;;;;;;45.17;16.38;;;-7.30;99.90;;;;;;4173201;28;20289;-74
2022/12/16 01:53:08;;;;;;;47.92;16.95;;;-7.30;99.90;;;;;;4172825;28;20600;-74
2022/12/16 01:55:15;;;;;;;43.72;17.63;;;-7.30;99.90;;;;;;4168284;28;20235;-75
2022/12/16 01:57:23;;;;;;;40.92;16.60;;;-7.30;99.90;;;;;;4172330;28;20226;-74
2022/12/16 01:59:29;;;;;;;47.70;16.52;;;-7.30;99.90;;;;;;4172122;28;20253;-74
2022/12/16 02:01:31;;;;;;;45.13;16.58;;;-7.30;99.90;;;;;;4170241;28;20306;-75
2022/12/16 02:03:36;;;;;;;41.97;16.85;;;-7.30;99.90;;;;;;4173592;28;20241;-74
2022/12/16 02:05:41;;;;;;;42.70;16.67;;;-7.30;99.90;;;;;;4172311;28;20265;-75
2022/12/16 02:07:43;;;;;;;43.50;16.52;;;-7.40;99.90;;;;;;4171035;28;20306;-75
2022/12/16 02:09:45;;;;;;;47.20;16.15;;;-7.40;99.90;;;;;;4175164;28;20211;-74
2022/12/16 02:12:19;;;;;;;45.38;17.83;;;-7.30;99.90;;;;;;4173384;28;20298;-74
2022/12/16 02:14:45;;;;;;;46.63;17.38;;;-7.40;99.90;;;;;;4141796;28;20877;-74
2022/12/16 02:16:55;;;;;;;51.92;17.88;;;-7.40;99.90;;;;;;4174533;28;20233;-74
2022/12/16 02:19:05;;;;;;;48.15;17.95;;;-7.40;99.90;;;;;;4173130;28;20211;-75
2022/12/16 02:21:36;;;;;;;50.75;18.35;;;-7.40;99.90;;;;;;4175179;28;20207;-74
2022/12/16 02:24:12;;;;;;;47.90;17.35;;;-7.40;99.90;;;;;;4171550;28;20203;-74
2022/12/16 02:26:54;;;;;;;52.05;18.10;;;-7.40;99.90;;;;;;4168137;28;20238;-74
2022/12/16 02:29:23;;;;;;;48.22;18.10;;;-7.30;99.90;;;;;;4106132;28;20293;-74
2022/12/16 02:31:33;;;;;;;52.80;18.70;;;-7.30;99.90;;;;;;4170001;28;20203;-75
2022/12/16 02:33:50;;;;;;;45.47;17.80;;;-7.30;99.90;;;;;;4173648;28;20222;-74
2022/12/16 02:35:57;;;;;;;47.00;16.95;;;-7.30;99.90;;;;;;4170146;28;20746;-74
2022/12/16 02:38:12;;;;;;;53.83;19.30;;;-7.30;99.90;;;;;;4172411;28;20210;-74
2022/12/16 02:40:23;;;;;;;47.78;17.20;;;-7.30;99.90;;;;;;4172910;28;20272;-74
2022/12/16 02:42:30;;;;;;;53.35;18.42;;;-7.30;99.90;;;;;;4172906;28;20302;-74
2022/12/16 02:44:39;;;;;;;47.38;17.23;;;-7.30;99.90;;;;;;4178591;28;20293;-74
2022/12/16 02:46:51;;;;;;;47.58;17.98;;;-7.40;99.90;;;;;;4175061;28;20731;-75
2022/12/16 02:48:53;;;;;;;47.88;18.75;;;-7.40;99.90;;;;;;4175370;28;20289;-74
2022/12/16 02:50:55;;;;;;;52.53;19.40;;;-7.40;99.90;;;;;;4172798;28;20302;-75
2022/12/16 02:52:59;;;;;;;48.67;17.02;;;-7.40;99.90;;;;;;4178133;28;20298;-75
2022/12/16 02:55:04;;;;;;;44.65;17.27;;;-7.40;99.90;;;;;;4178245;28;20219;-74
2022/12/16 02:57:16;;;;;;;42.92;16.52;;;-7.50;99.90;;;;;;4174489;28;20654;-75
2022/12/16 02:59:27;;;;;;;56.17;19.88;;;-7.50;99.90;;;;;;4178534;28;20272;-75
2022/12/16 03:01:36;;;;;;;52.17;17.73;;;-7.50;99.90;;;;;;4173964;28;20561;-75
2022/12/16 03:03:45;;;;;;;52.00;17.75;;;-7.60;99.90;;;;;;4178087;28;20205;-74
2022/12/16 03:05:51;;;;;;;42.40;15.60;;;-7.60;99.90;;;;;;4156564;28;20254;-75
2022/12/16 03:07:56;;;;;;;41.83;15.23;;;-7.60;99.90;;;;;;4178750;28;20204;-74
2022/12/16 03:10:00;;;;;;;39.58;15.65;;;-7.70;99.90;;;;;;4174863;28;20730;-74
2022/12/16 03:12:05;;;;;;;44.03;16.52;;;-7.70;99.90;;;;;;4174714;28;20224;-74
2022/12/16 03:14:10;;;;;;;45.92;17.02;;;-7.70;99.90;;;;;;4174213;28;20593;-74
2022/12/16 03:16:17;;;;;;;44.55;16.60;;;-7.80;99.90;;;;;;4173949;28;20239;-74
2022/12/16 03:18:20;;;;;;;42.42;16.30;;;-7.80;99.90;;;;;;4157910;28;20654;-74
2022/12/16 03:20:27;;;;;;;44.80;17.38;;;-7.80;99.90;;;;;;4171620;28;20622;-74
2022/12/16 03:22:33;;;;;;;46.40;17.02;;;-7.80;99.90;;;;;;4156950;28;20226;-75
2022/12/16 03:24:35;;;;;;;44.83;16.85;;;-7.80;99.90;;;;;;4169995;28;20207;-74
2022/12/16 03:26:42;;;;;;;46.75;16.88;;;-7.80;99.90;;;;;;4173254;28;20249;-74
2022/12/16 03:28:50;;;;;;;45.63;16.25;;;-7.80;99.90;;;;;;4157159;28;20211;-74
2022/12/16 03:30:59;;;;;;;48.40;17.08;;;-7.80;99.90;;;;;;4176414;28;20729;-74
2022/12/16 03:33:03;;;;;;;43.25;16.50;;;-7.80;99.90;;;;;;4159791;28;20208;-74
2022/12/16 03:35:13;;;;;;;50.05;17.63;;;-7.80;99.90;;;;;;4158587;28;20766;-74
2022/12/16 03:37:19;;;;;;;48.72;17.23;;;-7.80;99.90;;;;;;4157448;28;20303;-74
2022/12/16 03:39:22;;;;;;;43.92;15.68;;;-7.90;99.90;;;;;;4155843;28;20207;-74
2022/12/16 03:41:26;;;;;;;45.78;16.27;;;-7.90;99.90;;;;;;4173005;28;20199;-74
2022/12/16 03:43:28;;;;;;;48.45;15.65;;;-7.90;99.90;;;;;;4155424;28;20659;-75
2022/12/16 03:45:36;;;;;;;47.38;18.02;;;-7.90;99.90;;;;;;4160361;28;20215;-74
2022/12/16 03:47:38;;;;;;;49.20;17.83;;;-7.90;99.90;;;;;;4158785;28;20204;-74
2022/12/16 03:49:41;;;;;;;48.05;16.65;;;-7.90;99.90;;;;;;4175201;28;20206;-74
2022/12/16 03:51:43;;;;;;;52.55;16.75;;;-7.90;99.90;;;;;;4171907;28;20207;-74
2022/12/16 03:53:46;;;;;;;41.97;17.10;;;-8.00;99.90;;;;;;4173328;28;20224;-74
2022/12/16 03:55:48;;;;;;;49.22;18.02;;;-8.00;99.90;;;;;;4170782;28;20242;-74
2022/12/16 03:57:50;;;;;;;46.92;17.55;;;-8.00;99.90;;;;;;4158005;28;20235;-74
2022/12/16 03:59:52;;;;;;;53.50;18.73;;;-8.00;99.90;;;;;;4173184;28;20212;-74
2022/12/16 04:01:54;;;;;;;45.63;16.60;;;-8.00;99.90;;;;;;4173234;28;20207;-75
2022/12/16 04:03:56;;;;;;;46.58;17.50;;;-8.00;99.90;;;;;;4176565;28;20276;-75
2022/12/16 04:05:58;;;;;;;50.72;16.88;;;-8.00;99.90;;;;;;4154526;28;20231;-75
2022/12/16 04:08:00;;;;;;;42.17;17.23;;;-8.00;99.90;;;;;;4160602;28;20218;-75
2022/12/16 04:10:05;;;;;;;40.90;16.48;;;-7.80;99.90;;;;;;4157606;28;20204;-75
2022/12/16 04:26:12;;;;;;;45.65;16.30;;;-7.50;99.90;;;;;;4151423;28;20323;-75
2022/12/16 04:28:14;;;;;;;48.72;17.02;;;-8.10;99.90;;;;;;4154835;28;20602;-75
2022/12/16 04:30:22;;;;;;;51.70;17.20;;;-8.10;99.90;;;;;;4174244;28;20207;-74
2022/12/16 04:32:24;;;;;;;50.20;17.60;;;-8.00;99.90;;;;;;4176416;28;20273;-75
2022/12/16 04:34:25;;;;;;;48.03;17.50;;;-8.00;99.90;;;;;;4177388;28;20762;-75
